createdAt,value
2023-03-16T00:53:48.250Z,15.40
2023-03-16T00:56:37.843Z,15.97
2023-03-16T00:59:29.988Z,16.03
2023-03-16T01:06:30.520Z,15.20
2023-03-16T01:14:57.244Z,17.03
2023-03-16T01:22:05.090Z,18.17
2023-03-16T01:27:34.330Z,19.00
2023-03-16T01:33:08.545Z,18.13
2023-03-16T01:35:45.231Z,18.43
2023-03-16T01:38:25.680Z,19.03
2023-03-16T01:41:13.684Z,18.57
2023-03-16T01:44:13.646Z,19.17
2023-03-16T01:50:23.321Z,18.13
2023-03-16T01:53:10.944Z,18.83
2023-03-16T02:13:45.963Z,23.20
2023-03-16T03:45:59.054Z,17.50
2023-03-16T06:35:50.551Z,17.77
2023-03-16T07:07:14.488Z,17.77
2023-03-16T07:10:02.090Z,17.07
2023-03-16T07:12:44.859Z,16.47
2023-03-16T07:15:17.542Z,15.27
2023-03-16T07:18:05.889Z,18.17
2023-03-16T07:20:36.070Z,13.77
2023-03-16T07:23:44.637Z,15.27
2023-03-16T07:26:14.155Z,15.50
2023-03-16T07:28:43.538Z,14.50
2023-03-16T07:31:13.107Z,16.20
2023-03-16T07:33:49.830Z,17.67
2023-03-16T07:36:24.239Z,15.33
2023-03-16T07:38:55.460Z,13.23
2023-03-16T07:41:26.057Z,16.70
2023-03-16T07:43:56.576Z,16.80
2023-03-16T07:46:27.630Z,17.97
2023-03-16T07:48:56.487Z,19.43
2023-03-16T07:51:28.510Z,17.97
2023-03-16T07:54:00.890Z,16.00
2023-03-16T07:56:42.263Z,17.40
2023-03-16T07:59:23.748Z,17.43
2023-03-16T08:01:53.810Z,14.97
2023-03-16T08:04:22.690Z,13.60
2023-03-16T08:06:52.444Z,10.03
2023-03-16T08:09:22.084Z,12.17
2023-03-16T08:11:57.856Z,10.50
2023-03-16T08:14:26.303Z,9.03
2023-03-16T08:16:55.099Z,13.20
2023-03-16T08:19:23.499Z,9.83
2023-03-16T08:22:01.386Z,11.93
2023-03-16T08:24:32.348Z,10.97
2023-03-16T08:27:02.338Z,10.67
2023-03-16T08:29:34.064Z,11.67
2023-03-16T08:32:03.715Z,12.37
2023-03-16T08:34:31.981Z,12.70
2023-03-16T08:37:03.916Z,13.03
2023-03-16T08:39:38.259Z,11.33
2023-03-16T08:42:09.576Z,11.83
2023-03-16T08:44:40.117Z,12.73
2023-03-16T08:47:12.515Z,16.37
2023-03-16T08:49:42.598Z,15.50
2023-03-16T08:52:13.062Z,11.70
2023-03-16T08:54:59.769Z,8.63
2023-03-16T08:57:31.505Z,10.07
2023-03-16T09:00:00.814Z,12.53
2023-03-16T09:02:30.375Z,9.90
2023-03-16T09:04:59.562Z,9.07
2023-03-16T09:07:28.385Z,9.77
2023-03-16T09:10:00.634Z,12.97
2023-03-16T09:12:33.676Z,12.13
2023-03-16T09:15:07.463Z,9.53
2023-03-16T09:17:45.239Z,8.33
2023-03-16T09:20:26.923Z,13.60
2023-03-16T09:22:59.241Z,9.43
2023-03-16T09:25:32.491Z,12.07
2023-03-16T09:28:02.449Z,8.40
2023-03-16T09:30:35.222Z,9.97
2023-03-16T09:33:04.283Z,10.00
2023-03-16T09:35:35.011Z,9.33
2023-03-16T09:38:06.781Z,9.87
2023-03-16T09:40:40.077Z,9.50
2023-03-16T09:43:31.268Z,10.13
2023-03-16T09:46:09.932Z,8.30
2023-03-16T09:48:39.899Z,12.17
2023-03-16T09:51:16.788Z,8.43
2023-03-16T09:53:47.194Z,8.37
2023-03-16T09:56:30.708Z,9.07
2023-03-16T09:59:03.305Z,8.67
2023-03-16T10:01:45.037Z,8.10
2023-03-16T10:04:28.036Z,8.03
2023-03-16T10:07:07.652Z,8.13
2023-03-16T10:09:38.941Z,7.73
2023-03-16T10:12:13.656Z,8.50
2023-03-16T10:14:48.249Z,6.57
2023-03-16T10:17:19.957Z,7.53
2023-03-16T10:19:53.027Z,6.57
2023-03-16T10:22:26.910Z,6.60
2023-03-16T10:25:04.406Z,8.50
2023-03-16T10:27:47.347Z,8.40
2023-03-16T10:30:45.869Z,10.97
2023-03-16T10:33:25.258Z,6.90
2023-03-16T10:35:58.285Z,12.07
2023-03-16T10:38:47.571Z,8.90
2023-03-16T10:41:26.879Z,6.73
2023-03-16T10:44:00.160Z,6.90
2023-03-16T10:46:29.968Z,6.23
2023-03-16T10:49:01.914Z,6.87
2023-03-16T10:51:39.029Z,7.60
2023-03-16T10:54:23.242Z,7.17
2023-03-16T10:56:52.441Z,7.23
2023-03-16T10:59:37.597Z,6.40
2023-03-16T11:02:18.732Z,7.13
2023-03-16T11:04:48.126Z,6.93
2023-03-16T11:07:24.325Z,6.00
2023-03-16T11:09:57.021Z,11.23
2023-03-16T11:12:29.005Z,6.63
2023-03-16T11:15:07.488Z,6.43
2023-03-16T11:17:42.043Z,9.40
2023-03-16T11:20:17.985Z,7.40
2023-03-16T11:22:49.057Z,7.47
2023-03-16T11:25:28.204Z,9.57
2023-03-16T11:28:13.868Z,8.47
2023-03-16T11:30:53.784Z,7.20
2023-03-16T11:33:27.295Z,6.87
2023-03-16T11:36:10.123Z,8.23
2023-03-16T11:38:52.177Z,7.40
2023-03-16T11:41:29.952Z,8.33
2023-03-16T11:44:02.301Z,6.83
2023-03-16T11:46:43.360Z,6.67
2023-03-16T11:49:38.399Z,7.63
2023-03-16T11:52:17.380Z,7.63
2023-03-16T11:55:03.256Z,5.60
2023-03-16T11:57:49.591Z,7.13
2023-03-16T12:00:39.173Z,7.33
2023-03-16T12:03:42.463Z,6.87
2023-03-16T12:06:33.806Z,9.90
2023-03-16T12:09:52.294Z,7.17
2023-03-16T12:12:37.768Z,7.30
2023-03-16T12:15:27.593Z,8.20
2023-03-16T12:18:09.518Z,6.93
2023-03-16T12:21:03.813Z,7.73
2023-03-16T12:23:37.429Z,13.83
2023-03-16T12:26:06.097Z,7.90
2023-03-16T12:28:37.689Z,7.57
2023-03-16T12:31:13.192Z,7.47
2023-03-16T12:34:00.800Z,6.33
2023-03-16T12:36:56.700Z,6.37
2023-03-16T12:39:45.872Z,7.73
2023-03-16T12:42:35.889Z,6.60
2023-03-16T12:45:05.602Z,7.73
2023-03-16T12:47:44.756Z,7.03
2023-03-16T12:50:17.257Z,7.50
2023-03-16T12:52:49.410Z,7.73
2023-03-16T12:55:22.625Z,7.73
2023-03-16T12:58:03.760Z,7.87
2023-03-16T13:00:39.048Z,7.03
2023-03-16T13:03:19.413Z,7.17
2023-03-16T13:05:53.615Z,7.67
2023-03-16T13:08:23.939Z,7.17
2023-03-16T13:11:03.555Z,6.57
2023-03-16T13:13:33.000Z,6.50
2023-03-16T13:16:09.655Z,6.73
2023-03-16T13:18:41.861Z,9.57
2023-03-16T13:21:21.841Z,7.97
2023-03-16T13:24:16.304Z,7.23
2023-03-16T13:26:48.767Z,12.13
2023-03-16T13:29:31.047Z,11.07
2023-03-16T13:32:05.107Z,6.53
2023-03-16T13:34:40.480Z,7.10
2023-03-16T13:37:16.242Z,7.53
2023-03-16T13:39:57.938Z,6.50
2023-03-16T13:42:29.583Z,7.60
2023-03-16T13:44:59.766Z,7.70
2023-03-16T13:47:29.254Z,7.77
2023-03-16T13:50:01.879Z,6.07
2023-03-16T13:52:37.072Z,6.63
2023-03-16T13:55:32.332Z,6.30
2023-03-16T13:58:03.863Z,7.90
2023-03-16T14:00:36.999Z,7.50
2023-03-16T14:03:20.444Z,5.83
2023-03-16T14:05:50.032Z,7.07
2023-03-16T14:08:20.084Z,6.37
2023-03-16T14:10:53.204Z,8.33
2023-03-16T14:13:36.162Z,6.53
2023-03-16T14:16:14.636Z,8.93
2023-03-16T14:18:48.817Z,5.83
2023-03-16T14:21:24.234Z,5.87
2023-03-16T14:23:55.083Z,7.03
2023-03-16T14:26:27.688Z,5.70
2023-03-16T14:29:01.973Z,6.57
2023-03-16T14:31:37.014Z,6.87
2023-03-16T14:34:12.090Z,9.97
2023-03-16T14:36:41.825Z,7.83
2023-03-16T14:39:16.961Z,8.00
2023-03-16T14:41:50.656Z,8.10
2023-03-16T14:44:24.821Z,8.60
2023-03-16T14:46:56.760Z,6.77
2023-03-16T14:49:31.445Z,6.40
2023-03-16T14:52:03.582Z,8.23
2023-03-16T14:54:35.948Z,6.43
2023-03-16T14:57:14.442Z,6.93
2023-03-16T14:59:43.545Z,7.47
2023-03-16T15:02:18.779Z,6.43
2023-03-16T15:04:51.604Z,6.07
2023-03-16T15:07:45.575Z,6.87
2023-03-16T15:10:31.009Z,9.83
2023-03-16T15:14:04.965Z,5.67
2023-03-16T15:16:49.897Z,4.37
2023-03-16T15:19:19.697Z,6.63
2023-03-16T15:21:49.296Z,5.17
2023-03-16T15:24:17.595Z,6.93
2023-03-16T15:26:47.221Z,4.17
2023-03-16T15:29:19.888Z,3.97
2023-03-16T15:31:54.579Z,6.23
2023-03-16T15:34:25.281Z,5.83
2023-03-16T15:36:55.300Z,3.47
2023-03-16T15:39:28.026Z,6.80
2023-03-16T15:41:56.576Z,4.77
2023-03-16T15:44:27.248Z,3.70
2023-03-16T15:46:57.142Z,3.73
2023-03-16T15:49:34.976Z,5.50
2023-03-16T15:52:08.034Z,5.50
2023-03-16T15:54:39.192Z,5.50
2023-03-16T15:57:08.247Z,4.70
2023-03-16T15:59:37.974Z,4.37
2023-03-16T16:02:40.929Z,4.13
2023-03-16T16:05:11.044Z,5.20
2023-03-16T16:07:39.563Z,5.53
2023-03-16T16:10:12.304Z,3.70
2023-03-16T16:12:40.777Z,5.20
2023-03-16T16:15:20.708Z,3.90
2023-03-16T16:18:18.672Z,3.60
2023-03-16T16:20:42.660Z,4.53
2023-03-16T16:23:14.484Z,5.70
2023-03-16T16:25:43.878Z,7.30
2023-03-16T16:28:16.766Z,4.97
2023-03-16T16:30:48.812Z,5.00
2023-03-16T16:33:29.501Z,11.27
2023-03-16T16:36:07.261Z,5.60
2023-03-16T16:38:36.512Z,5.50
2023-03-16T16:41:10.143Z,5.43
2023-03-16T16:43:42.557Z,6.33
2023-03-16T16:46:16.470Z,6.40
2023-03-16T16:48:51.406Z,5.97
2023-03-16T16:51:26.461Z,5.83
2023-03-16T16:54:00.373Z,4.57
2023-03-16T16:56:31.998Z,5.07
2023-03-16T16:59:02.906Z,5.50
2023-03-16T17:01:36.497Z,3.93
2023-03-16T17:04:15.854Z,4.77
2023-03-16T17:06:44.437Z,5.23
2023-03-16T17:09:15.674Z,6.07
2023-03-16T17:11:46.469Z,6.93
2023-03-16T17:14:18.915Z,4.93
2023-03-16T17:16:48.744Z,4.83
2023-03-16T17:19:23.332Z,4.27
2023-03-16T17:21:52.253Z,5.53
2023-03-16T17:24:22.158Z,6.87
2023-03-16T17:26:54.921Z,5.70
2023-03-16T17:29:35.051Z,4.53
2023-03-16T17:32:05.796Z,4.47
2023-03-16T17:34:46.013Z,4.40
2023-03-16T17:37:17.226Z,3.30
2023-03-16T17:39:47.004Z,5.37
2023-03-16T17:42:23.226Z,5.07
2023-03-16T17:44:56.064Z,4.43
2023-03-16T17:47:27.991Z,4.03
2023-03-16T17:50:04.918Z,4.50
2023-03-16T17:52:34.283Z,7.60
2023-03-16T17:55:04.525Z,4.93
2023-03-16T17:57:35.685Z,4.17
2023-03-16T18:00:19.131Z,3.33
2023-03-16T18:02:55.259Z,5.17
2023-03-16T18:05:28.155Z,4.20
2023-03-16T18:08:04.862Z,7.80
2023-03-16T18:10:36.879Z,4.53
2023-03-16T18:13:09.183Z,5.63
2023-03-16T18:15:40.207Z,3.97
2023-03-16T18:18:09.248Z,4.67
2023-03-16T18:20:42.783Z,10.63
2023-03-16T18:23:18.786Z,6.67
2023-03-16T18:25:50.438Z,7.40
2023-03-16T18:28:20.701Z,7.60
2023-03-16T18:30:57.454Z,4.67
2023-03-16T18:33:28.723Z,5.13
2023-03-16T18:36:01.022Z,8.87
2023-03-16T18:38:32.513Z,4.33
2023-03-16T18:41:04.606Z,6.27
2023-03-16T18:43:34.593Z,8.37
2023-03-16T18:46:02.999Z,6.03
2023-03-16T18:48:38.198Z,6.67
2023-03-16T18:54:34.056Z,6.90
2023-03-16T18:57:14.866Z,4.80
2023-03-16T19:02:42.873Z,5.33
2023-03-16T19:05:18.757Z,5.50
2023-03-16T19:08:09.407Z,7.30
2023-03-16T19:10:49.263Z,8.20
2023-03-16T19:13:21.847Z,5.97
2023-03-16T19:15:55.029Z,7.60
2023-03-16T19:18:26.273Z,6.07
2023-03-16T19:20:58.890Z,6.40
2023-03-16T19:23:56.470Z,6.97
2023-03-16T19:26:35.023Z,4.70
2023-03-16T19:29:10.810Z,9.40
2023-03-16T19:31:55.086Z,8.03
2023-03-16T19:40:14.379Z,8.30
2023-03-16T19:43:00.397Z,6.53
2023-03-16T19:45:46.640Z,6.43
2023-03-16T19:48:22.502Z,7.10
2023-03-16T19:51:02.937Z,8.47
2023-03-16T19:53:36.083Z,8.80
2023-03-16T19:56:17.168Z,7.67
2023-03-16T19:58:50.927Z,10.30
2023-03-16T20:01:22.614Z,9.30
2023-03-16T20:03:55.641Z,7.60
2023-03-16T20:06:28.372Z,8.37
2023-03-16T20:09:04.400Z,6.80
2023-03-16T20:14:41.110Z,8.20
2023-03-16T20:17:33.217Z,7.47
2023-03-16T20:20:17.536Z,5.80
2023-03-16T20:25:35.587Z,7.40
2023-03-16T20:28:18.120Z,8.70
2023-03-16T20:30:51.783Z,7.80
2023-03-16T20:33:24.386Z,6.47
2023-03-16T20:35:55.259Z,4.73
2023-03-16T20:38:25.831Z,9.83
2023-03-16T20:40:56.093Z,10.27
2023-03-16T20:43:28.653Z,8.97
2023-03-16T20:46:07.053Z,6.73
2023-03-16T20:48:39.017Z,8.27
2023-03-16T20:51:15.092Z,9.20
2023-03-16T20:53:45.435Z,7.80
2023-03-16T20:56:18.703Z,6.27
2023-03-16T20:58:56.433Z,9.23
2023-03-16T21:01:28.150Z,8.57
2023-03-16T21:04:00.588Z,8.70
2023-03-16T21:06:46.738Z,6.67
2023-03-16T21:09:15.405Z,10.87
2023-03-16T21:11:45.842Z,11.30
2023-03-16T21:14:19.494Z,9.40
2023-03-16T21:16:49.344Z,7.77
2023-03-16T21:19:19.822Z,9.30
2023-03-16T21:21:48.209Z,9.60
2023-03-16T21:24:19.304Z,8.13
2023-03-16T21:26:55.377Z,7.80
2023-03-16T21:29:26.538Z,10.63
2023-03-16T21:31:55.710Z,7.63
2023-03-16T21:34:34.297Z,7.73
2023-03-16T21:37:15.150Z,7.90
2023-03-16T21:39:43.369Z,7.80
2023-03-16T21:42:29.270Z,8.03
2023-03-16T21:45:01.986Z,7.90
2023-03-16T21:47:39.727Z,6.73
2023-03-16T21:50:16.925Z,8.23
2023-03-16T21:52:49.775Z,7.67
2023-03-16T21:58:12.583Z,7.57
2023-03-16T22:00:42.964Z,9.13
2023-03-16T22:03:47.975Z,9.80
2023-03-16T22:06:24.085Z,8.03
2023-03-16T22:08:53.160Z,9.07
2023-03-16T22:11:30.410Z,11.87
2023-03-16T22:14:01.912Z,9.60
2023-03-16T22:16:38.429Z,9.03
2023-03-16T22:19:08.062Z,7.10
2023-03-16T22:21:37.810Z,10.07
2023-03-16T22:24:10.168Z,10.23
2023-03-16T22:26:41.522Z,9.77
2023-03-16T22:29:31.740Z,11.30
2023-03-16T22:32:09.370Z,10.07
2023-03-16T22:34:43.242Z,9.83
2023-03-16T22:37:17.928Z,7.80
2023-03-16T22:39:47.006Z,8.30
2023-03-16T22:42:30.432Z,9.30
2023-03-16T22:45:02.732Z,10.43
2023-03-16T22:47:37.141Z,7.57
2023-03-16T22:50:07.366Z,10.90
2023-03-16T22:52:39.058Z,9.73
2023-03-16T22:55:09.360Z,9.43
2023-03-16T22:57:41.421Z,8.67
2023-03-16T23:00:21.368Z,8.53
2023-03-16T23:02:51.671Z,7.27
2023-03-16T23:05:22.761Z,8.50
2023-03-16T23:07:52.572Z,8.20
2023-03-16T23:10:23.834Z,10.17
2023-03-16T23:12:55.133Z,8.73
2023-03-16T23:15:26.118Z,6.83
2023-03-16T23:17:58.250Z,9.37
2023-03-16T23:20:31.342Z,8.57
2023-03-16T23:23:01.396Z,9.33
2023-03-16T23:25:32.091Z,8.67
2023-03-16T23:28:03.369Z,8.70
2023-03-16T23:30:46.788Z,8.37
2023-03-16T23:33:17.728Z,9.10
2023-03-16T23:35:49.235Z,8.80
2023-03-16T23:38:17.359Z,7.93
2023-03-16T23:40:51.580Z,10.97
2023-03-16T23:43:19.888Z,9.70
2023-03-16T23:45:50.082Z,7.87
2023-03-16T23:48:27.591Z,8.50
2023-03-16T23:50:58.097Z,6.77
2023-03-16T23:53:27.295Z,7.57
2023-03-16T23:55:56.689Z,7.63
2023-03-16T23:58:25.554Z,7.87
